• Join FlightAware (Why Join?)
  • Login
  • US Flag 
Gobble Gobble! 
09:39AM EST


 

Airport Tracker/Info


-or-


 

Live Flight TrackerFlight Track Log ✈ AWE1092 ✈ 23-May-2013 ✈ KPHL - KRDU

Flight Track Log - Related Links

Times and Time Zones

All times are in EDT time to prevent confusion due to time zone crossing. See the AWE1092 flight status page for this flight to view local times or setup timezone preferences in your user account.

Time Position Orientation Groundspeed Altitude Reporting Facility
EDT Latitude Longitude Course Direction KTS MPH feet Rate Location/Type
09:43AM 39.8667 -75.2667 201° Southwest 145 167 800  Level Philadelphia TRACON
09:45AM 39.7986 -75.3378 219° Southwest 173 199 3,700 2,280 Climbing Washington Center
09:46AM 39.5790 -75.3009 189° South  Level FlightAware Approximate
09:46AM 39.7300 -75.3461 185° South 215 247 7,000  Level Washington Center
09:47AM 39.4799 -75.3234 194° South  Level FlightAware Approximate
09:47AM 39.6633 -75.3489 182° South 244 281 10,400  Level Washington Center
09:48AM 39.3804 -75.3392 185° South  Level FlightAware Approximate
09:48AM 39.5800 -75.3572 184° South 276 318 11,900  Level Washington Center
09:49AM 39.2803 -75.3515 201° Southwest  Level FlightAware Approximate
09:49AM 39.4903 -75.3631 183° South 309 356 12,000  Level Washington Center
09:50AM 39.4008 -75.3686 183° South 327 376 13,200 960 Climbing Washington Center
09:51AM 39.3069 -75.3769 184° South 332 382 14,000 360 Climbing Washington Center
09:52AM 39.2153 -75.3825 183° South 332 382 14,000 660 Level Washington Center
09:53AM 39.1217 -75.3936 185° South 332 382 15,400 1,500 Climbing Washington Center
09:54AM 39.0278 -75.4100 188° South 332 382 17,000 1,080 Climbing Washington Center
09:55AM 38.9319 -75.4261 187° South 343 395 17,600 1,380 Climbing Washington Center
09:56AM 38.8339 -75.4397 186° South 355 409 19,900 2,160 Climbing Washington Center
09:57AM 38.7297 -75.4558 187° South 368 423 22,100 2,040 Climbing Washington Center
09:58AM 38.6233 -75.4722 187° South 379 436 24,000 1,800 Climbing Washington Center
09:59AM 38.5150 -75.4828 184° South 387 445 25,700 960 Climbing Washington Center
10:00AM 38.4067 -75.5069 190° South 397 457 26,000 120 Climbing Washington Center
10:01AM 38.2983 -75.5389 193° South 397 457 26,000  Level Washington Center
10:02AM 38.2003 -75.5997 206° Southwest 397 457 26,000  Level Washington Center
10:03AM 38.1022 -75.6631 207° Southwest 397 457 26,000  Level Washington Center
10:04AM 37.9958 -75.7367 209° Southwest 397 457 26,000  Level Washington Center
10:05AM 37.8978 -75.7944 205° Southwest 397 457 26,000  Level Washington Center
10:06AM 37.8058 -75.8414 202° Southwest 392 451 26,000  Level Washington Center
10:07AM 37.7014 -75.9119 208° Southwest 392 451 26,000  Level Washington Center
10:08AM 37.6053 -75.9772 208° Southwest 387 445 26,000  Level Washington Center
10:09AM 37.5339 -76.0817 229° Southwest 387 445 26,000  Level Washington Center
10:10AM 37.4689 -76.1728 228° Southwest 387 445 26,000  Level Washington Center
10:11AM 37.4017 -76.2794 232° Southwest 392 451 26,000 -540 Level Washington Center
10:12AM 37.3300 -76.3858 230° Southwest 397 457 25,000 -1,020 Descending Washington Center
10:13AM 37.2647 -76.4894 232° Southwest 397 457 24,000 -960 Descending Washington Center
10:14AM 37.1972 -76.5931 231° Southwest 397 457 23,200 -900 Descending Washington Center
10:15AM 37.1314 -76.6992 232° Southwest 397 457 22,200 -600 Descending Washington Center
10:16AM 37.0658 -76.7969 230° Southwest 392 451 22,000 -120 Descending Washington Center
10:17AM 37.0022 -76.9000 232° Southwest 387 445 22,000  Level Washington Center
10:18AM 36.9342 -77.0028 230° Southwest 387 445 22,000  Level Washington Center
10:19AM 36.8683 -77.1028 231° Southwest 387 445 22,000 -180 Level Washington Center
10:20AM 36.8025 -77.2053 231° Southwest 387 445 21,700 -720 Descending Washington Center
10:21AM 36.7383 -77.3050 231° Southwest 382 440 20,600 -900 Descending Washington Center
10:22AM 36.6722 -77.4047 230° Southwest 382 440 20,000 -300 Descending Washington Center
10:23AM 36.6103 -77.5042 232° Southwest 377 434 20,000  Level Washington Center
10:24AM 36.5461 -77.6008 230° Southwest 371 427 20,000  Level Washington Center
10:25AM 36.4819 -77.6972 230° Southwest 371 427 20,000 -1,080 Level Washington Center
10:26AM 36.4153 -77.8039 232° Southwest 377 434 17,900 -2,100 Descending Washington Center
10:27AM 36.3767 -77.8569 228° Southwest 360 414 16,800 -1,800 Descending Washington Center
10:27AM 36.3531 -77.8975 234° Southwest 367 422 16,100 -1,800 Descending Washington Center
10:28AM 36.3253 -77.9328 226° Southwest 345 397 15,300 -1,860 Descending Washington Center
10:28AM 36.2906 -77.9886 232° Southwest 361 415 14,300 -1,680 Descending Washington Center
10:29AM 36.2628 -78.0289 229° Southwest 335 386 13,400 -1,800 Descending Washington Center
10:29AM 36.2325 -78.0744 231° Southwest 350 403 12,500 -1,740 Descending Washington Center
10:30AM 36.2025 -78.1172 229° Southwest 325 374 11,700 -1,800 Descending Washington Center
10:30AM 36.1767 -78.1600 233° Southwest 335 386 10,800 -1,800 Descending Washington Center
10:31AM 36.1503 -78.2133 239° Southwest 294 338 9,800 -1,440 Descending Washington Center
10:31AM 36.1497 -78.2414 269° West 298 343 9,400 -1,080 Descending Washington Center
10:32AM 36.1378 -78.3053 257° West 253 291 8,700 -1,020 Descending Washington Center
10:32AM 36.1350 -78.3336 263° West 261 300 8,400 -1,080 Descending Washington Center
10:33AM 36.1197 -78.3742 245° Southwest 223 257 7,800 -1,140 Descending Washington Center
10:33AM 36.1108 -78.3969 244° Southwest 236 272 7,300 -1,200 Descending Washington Center
10:34AM 36.0928 -78.4453 245° Southwest 226 260 6,600 -1,260 Descending Washington Center
10:34AM 36.0817 -78.4756 246° West 231 266 6,100 -1,200 Descending Washington Center
10:35AM 36.0683 -78.5111 245° Southwest 226 260 5,500 -1,140 Descending Washington Center
10:35AM 36.0550 -78.5467 245° Southwest 231 266 5,000 -1,020 Descending Washington Center
10:36AM 36.0417 -78.5769 241° Southwest 221 254 4,500 -1,020 Descending Washington Center
10:36AM 36.0283 -78.6125 245° Southwest 231 266 4,000 -1,020 Descending Washington Center
10:37AM 36.0089 -78.6372 226° Southwest 219 252 3,500 -1,140 Descending Washington Center